createdAt,value
2022-09-27T00:00:16.460Z,13.67
2022-09-27T00:01:16.559Z,13.67
2022-09-27T00:02:16.561Z,13.63
2022-09-27T00:03:16.479Z,13.62
2022-09-27T00:04:16.487Z,13.70
2022-09-27T00:05:16.491Z,13.70
2022-09-27T00:06:16.498Z,13.67
2022-09-27T00:07:16.506Z,13.67
2022-09-27T00:08:16.510Z,13.68
2022-09-27T00:09:16.703Z,13.70
2022-09-27T00:10:16.530Z,13.71
2022-09-27T00:11:16.531Z,13.72
2022-09-27T00:12:16.536Z,13.62
2022-09-27T00:13:16.539Z,13.71
2022-09-27T00:14:16.548Z,13.62
2022-09-27T00:15:16.573Z,13.68
2022-09-27T00:16:16.694Z,13.67
2022-09-27T00:17:16.567Z,13.68
2022-09-27T00:18:16.570Z,13.62
2022-09-27T00:19:16.664Z,13.70
2022-09-27T00:20:16.584Z,13.62
2022-09-27T00:21:16.589Z,13.60
2022-09-27T00:22:16.595Z,13.68
2022-09-27T00:23:16.601Z,13.67
2022-09-27T00:24:16.608Z,13.65
2022-09-27T00:25:16.658Z,13.62
2022-09-27T00:26:16.622Z,13.72
2022-09-27T00:27:16.625Z,13.77
2022-09-27T00:28:16.632Z,13.72
2022-09-27T00:29:16.827Z,13.71
2022-09-27T00:30:16.646Z,13.65
2022-09-27T00:31:16.758Z,13.68
2022-09-27T00:32:16.660Z,13.74
2022-09-27T00:33:16.662Z,13.67
2022-09-27T00:34:16.669Z,13.70
2022-09-27T00:35:16.675Z,13.68
2022-09-27T00:36:16.683Z,13.68
2022-09-27T00:37:16.695Z,13.72
2022-09-27T00:38:16.694Z,13.71
2022-09-27T00:39:16.934Z,13.70
2022-09-27T00:40:19.606Z,13.68
2022-09-27T00:41:16.712Z,13.67
2022-09-27T00:42:16.718Z,13.67
2022-09-27T00:43:16.725Z,13.63
2022-09-27T00:44:16.730Z,13.63
2022-09-27T00:45:16.737Z,13.65
2022-09-27T00:46:16.802Z,13.59
2022-09-27T00:47:16.775Z,13.57
2022-09-27T00:48:16.754Z,13.44
2022-09-27T00:49:16.928Z,13.44
2022-09-27T00:50:16.767Z,13.52
2022-09-27T00:51:16.774Z,13.56
2022-09-27T00:52:16.778Z,13.50
2022-09-27T00:53:16.790Z,13.52
2022-09-27T00:54:16.797Z,13.44
2022-09-27T00:55:16.798Z,13.39
2022-09-27T00:56:16.809Z,13.39
2022-09-27T00:57:16.812Z,13.35
2022-09-27T00:58:16.824Z,13.37
2022-09-27T00:59:16.988Z,13.37
2022-09-27T01:00:16.828Z,13.44
2022-09-27T01:01:16.883Z,13.37
2022-09-27T01:02:16.858Z,13.38
2022-09-27T01:03:16.868Z,13.38
2022-09-27T01:04:16.850Z,13.33
2022-09-27T01:05:16.857Z,13.39
2022-09-27T01:06:16.865Z,13.38
2022-09-27T01:07:16.870Z,13.35
2022-09-27T01:08:16.874Z,13.39
2022-09-27T01:09:16.961Z,13.35
2022-09-27T01:10:16.887Z,13.41
2022-09-27T01:11:16.896Z,13.30
2022-09-27T01:12:16.897Z,13.35
2022-09-27T01:13:16.906Z,13.22
2022-09-27T01:14:16.911Z,13.23
2022-09-27T01:15:16.918Z,13.20
2022-09-27T01:16:17.003Z,13.27
2022-09-27T01:17:16.961Z,13.22
2022-09-27T01:18:16.936Z,13.20
2022-09-27T01:19:16.960Z,13.23
2022-09-27T01:20:16.947Z,13.27
2022-09-27T01:21:16.951Z,13.25
2022-09-27T01:22:16.960Z,13.28
2022-09-27T01:23:16.964Z,13.25
2022-09-27T01:24:16.970Z,13.25
2022-09-27T01:25:16.976Z,13.19
2022-09-27T01:26:16.983Z,13.20
2022-09-27T01:27:16.987Z,13.22
2022-09-27T01:28:16.993Z,13.22
2022-09-27T01:29:16.999Z,13.19
2022-09-27T01:30:17.012Z,13.16
2022-09-27T01:31:17.181Z,13.08
2022-09-27T01:32:17.020Z,13.04
2022-09-27T01:33:17.030Z,13.08
2022-09-27T01:34:17.037Z,13.03
2022-09-27T01:35:17.059Z,13.04
2022-09-27T01:36:17.040Z,13.05
2022-09-27T01:37:17.049Z,13.15
2022-09-27T01:38:17.053Z,13.08
2022-09-27T01:39:17.284Z,13.13
2022-09-27T01:40:17.103Z,13.12
2022-09-27T01:41:17.072Z,13.13
2022-09-27T01:42:21.955Z,13.22
2022-09-27T01:43:17.084Z,13.08
2022-09-27T01:44:17.087Z,13.09
2022-09-27T01:45:17.095Z,13.22
2022-09-27T01:46:17.235Z,13.19
2022-09-27T01:47:17.106Z,13.11
2022-09-27T01:48:17.112Z,13.13
2022-09-27T01:49:17.304Z,13.09
2022-09-27T01:50:17.126Z,13.05
2022-09-27T01:51:17.152Z,13.05
2022-09-27T01:52:17.139Z,13.05
2022-09-27T01:53:17.141Z,13.04
2022-09-27T01:54:17.149Z,13.08
2022-09-27T01:55:17.154Z,13.03
2022-09-27T01:56:17.160Z,13.12
2022-09-27T01:57:17.164Z,13.08
2022-09-27T01:58:17.178Z,13.05
2022-09-27T01:59:17.423Z,13.08
2022-09-27T02:00:17.187Z,13.09
2022-09-27T02:01:17.348Z,13.08
2022-09-27T02:02:17.326Z,13.08
2022-09-27T02:03:17.200Z,13.04
2022-09-27T02:04:17.208Z,13.09
2022-09-27T02:05:17.213Z,13.05
2022-09-27T02:06:17.219Z,13.15
2022-09-27T02:07:17.247Z,13.05
2022-09-27T02:08:17.230Z,13.08
2022-09-27T02:09:17.459Z,13.05
2022-09-27T02:10:17.245Z,13.04
2022-09-27T02:11:17.249Z,12.98
2022-09-27T02:12:17.257Z,13.03
2022-09-27T02:13:17.260Z,13.01
2022-09-27T02:14:17.266Z,12.97
2022-09-27T02:15:17.274Z,13.00
2022-09-27T02:16:17.331Z,12.90
2022-09-27T02:17:17.286Z,12.97
2022-09-27T02:18:17.291Z,12.95
2022-09-27T02:19:17.423Z,12.93
2022-09-27T02:20:17.301Z,12.91
2022-09-27T02:21:17.309Z,12.95
2022-09-27T02:22:17.314Z,12.98
2022-09-27T02:23:17.343Z,12.98
2022-09-27T02:24:17.325Z,12.95
2022-09-27T02:25:17.330Z,12.95
2022-09-27T02:26:17.338Z,12.91
2022-09-27T02:27:17.345Z,12.94
2022-09-27T02:28:17.353Z,12.87
2022-09-27T02:29:17.413Z,12.83
2022-09-27T02:30:17.362Z,12.87
2022-09-27T02:31:17.413Z,12.83
2022-09-27T02:32:17.379Z,12.82
2022-09-27T02:33:17.377Z,12.86
2022-09-27T02:34:17.385Z,12.85
2022-09-27T02:35:17.389Z,12.85
2022-09-27T02:36:17.396Z,12.85
2022-09-27T02:37:17.400Z,12.91
2022-09-27T02:38:17.408Z,12.90
2022-09-27T02:39:17.691Z,12.87
2022-09-27T02:40:17.484Z,12.82
2022-09-27T02:41:17.432Z,12.87
2022-09-27T02:42:17.431Z,12.85
2022-09-27T02:43:17.438Z,12.85
2022-09-27T02:44:17.441Z,12.86
2022-09-27T02:45:17.448Z,12.83
2022-09-27T02:46:17.500Z,12.85
2022-09-27T02:47:17.459Z,12.78
2022-09-27T02:48:17.466Z,12.82
2022-09-27T02:49:17.470Z,12.80
2022-09-27T02:50:17.480Z,12.70
2022-09-27T02:51:17.483Z,12.85
2022-09-27T02:52:17.492Z,12.82
2022-09-27T02:53:17.494Z,12.72
2022-09-27T02:54:17.502Z,12.72
2022-09-27T02:55:17.526Z,12.73
2022-09-27T02:56:17.513Z,12.76
2022-09-27T02:57:17.518Z,12.76
2022-09-27T02:58:17.526Z,12.76
2022-09-27T02:59:17.529Z,12.75
2022-09-27T03:00:17.534Z,12.73
2022-09-27T03:01:17.561Z,12.61
2022-09-27T03:02:17.588Z,12.73
2022-09-27T03:03:17.555Z,12.70
2022-09-27T03:04:17.558Z,12.72
2022-09-27T03:05:17.565Z,12.64
2022-09-27T03:06:17.571Z,12.55
2022-09-27T03:07:17.577Z,12.57
2022-09-27T03:08:17.581Z,12.76
2022-09-27T03:09:17.587Z,12.62
2022-09-27T03:10:17.592Z,12.64
2022-09-27T03:11:17.628Z,12.62
2022-09-27T03:12:17.602Z,12.64
2022-09-27T03:13:17.610Z,12.60
2022-09-27T03:14:17.614Z,12.60
2022-09-27T03:15:17.622Z,12.62
2022-09-27T03:16:17.683Z,12.61
2022-09-27T03:17:17.634Z,12.73
2022-09-27T03:18:17.639Z,12.75
2022-09-27T03:19:17.644Z,12.68
2022-09-27T03:20:17.649Z,12.68
2022-09-27T03:21:17.654Z,12.61
2022-09-27T03:22:17.663Z,12.57
2022-09-27T03:23:17.666Z,12.62
2022-09-27T03:24:17.672Z,12.68
2022-09-27T03:25:17.677Z,12.65
2022-09-27T03:26:17.683Z,12.72
2022-09-27T03:27:17.711Z,12.73
2022-09-27T03:28:17.694Z,12.62
2022-09-27T03:29:17.699Z,12.60
2022-09-27T03:30:17.707Z,12.58
2022-09-27T03:31:17.863Z,12.64
2022-09-27T03:32:17.718Z,12.61
2022-09-27T03:33:17.723Z,12.62
2022-09-27T03:34:17.729Z,12.65
2022-09-27T03:35:17.739Z,12.60
2022-09-27T03:36:17.740Z,12.65
2022-09-27T03:37:17.747Z,12.68
2022-09-27T03:38:17.751Z,12.65
2022-09-27T03:39:17.758Z,12.61
2022-09-27T03:40:17.810Z,12.60
2022-09-27T03:41:17.776Z,12.64
2022-09-27T03:42:17.775Z,12.55
2022-09-27T03:43:17.803Z,12.61
2022-09-27T03:44:17.784Z,12.61
2022-09-27T03:45:17.792Z,12.72
2022-09-27T03:46:17.854Z,12.65
2022-09-27T03:47:17.805Z,12.60
2022-09-27T03:48:17.806Z,12.61
2022-09-27T03:49:17.828Z,12.72
2022-09-27T03:50:17.819Z,12.64
2022-09-27T03:51:17.827Z,12.76
2022-09-27T03:52:17.832Z,12.61
2022-09-27T03:53:17.836Z,12.61
2022-09-27T03:54:17.845Z,12.61
2022-09-27T03:55:17.849Z,12.57
2022-09-27T03:56:17.855Z,12.57
2022-09-27T03:57:17.859Z,12.73
2022-09-27T03:58:17.867Z,12.64
2022-09-27T03:59:17.895Z,12.60
2022-09-27T04:00:17.880Z,12.64
2022-09-27T04:01:17.952Z,12.55
2022-09-27T04:02:17.938Z,12.73
2022-09-27T04:03:17.895Z,12.65
2022-09-27T04:04:17.901Z,12.60
2022-09-27T04:05:17.905Z,12.75
2022-09-27T04:06:17.911Z,12.62
2022-09-27T04:07:17.917Z,12.64
2022-09-27T04:08:17.923Z,12.55
2022-09-27T04:09:17.930Z,12.60
2022-09-27T04:10:17.934Z,12.60
2022-09-27T04:11:17.942Z,12.64
2022-09-27T04:12:17.945Z,12.65
2022-09-27T04:13:17.956Z,12.64
2022-09-27T04:14:17.957Z,12.62
2022-09-27T04:15:17.993Z,12.60
2022-09-27T04:16:18.042Z,12.57
2022-09-27T04:17:17.977Z,12.54
2022-09-27T04:18:17.980Z,12.55
2022-09-27T04:20:05.538Z,12.49
2022-09-27T04:21:05.542Z,12.62
2022-09-27T04:22:05.550Z,12.50
2022-09-27T04:23:05.553Z,12.60
2022-09-27T04:24:05.560Z,12.61
2022-09-27T04:25:05.564Z,12.60
2022-09-27T04:26:05.572Z,12.57
2022-09-27T04:27:05.586Z,12.55
2022-09-27T04:28:05.582Z,12.58
2022-09-27T04:29:05.589Z,12.60
2022-09-27T04:30:05.592Z,12.70
2022-09-27T04:31:05.757Z,12.50
2022-09-27T04:32:05.605Z,12.54
2022-09-27T04:33:05.614Z,12.57
2022-09-27T04:34:05.615Z,12.54
2022-09-27T04:35:05.622Z,12.53
2022-09-27T04:36:05.627Z,12.55
2022-09-27T04:37:05.635Z,12.53
2022-09-27T04:38:05.640Z,12.50
2022-09-27T04:39:05.648Z,12.55
2022-09-27T04:40:05.665Z,12.46
2022-09-27T04:41:05.656Z,12.55
2022-09-27T04:42:05.660Z,12.55
2022-09-27T04:43:05.667Z,12.54
2022-09-27T04:44:05.676Z,12.55
2022-09-27T04:45:05.678Z,12.53
2022-09-27T04:46:05.732Z,12.55
2022-09-27T04:48:05.697Z,12.54
2022-09-27T04:49:05.700Z,12.57
2022-09-27T04:50:05.707Z,12.54
2022-09-27T04:51:05.711Z,12.55
2022-09-27T04:52:05.719Z,12.55
2022-09-27T04:53:05.722Z,12.55
2022-09-27T04:54:05.733Z,12.53
2022-09-27T04:55:05.734Z,12.58
2022-09-27T04:56:05.742Z,12.58
2022-09-27T04:57:05.744Z,12.58
2022-09-27T04:58:05.752Z,12.57
2022-09-27T05:02:01.665Z,12.53
2022-09-27T05:03:01.822Z,12.57
2022-09-27T05:04:01.676Z,12.50
2022-09-27T05:05:01.679Z,12.53
2022-09-27T05:06:01.685Z,12.50
2022-09-27T05:07:01.689Z,12.45
2022-09-27T05:08:01.696Z,12.47
2022-09-27T05:09:01.700Z,12.47
2022-09-27T05:10:01.712Z,12.47
2022-09-27T05:11:01.711Z,12.46
2022-09-27T05:12:01.718Z,12.53
2022-09-27T05:13:01.722Z,12.49
2022-09-27T05:14:01.731Z,12.45
2022-09-27T05:15:01.734Z,12.53
2022-09-27T05:16:01.739Z,12.47
2022-09-27T05:17:01.807Z,12.49
2022-09-27T05:18:01.752Z,12.50
2022-09-27T05:19:01.775Z,12.55
2022-09-27T05:20:01.759Z,12.46
2022-09-27T05:21:01.766Z,12.46
2022-09-27T05:22:01.771Z,12.46
2022-09-27T05:23:01.777Z,12.47
2022-09-27T05:33:20.854Z,12.60
2022-09-27T05:34:20.884Z,12.54
2022-09-27T05:35:20.865Z,12.54
2022-09-27T05:36:20.867Z,12.57
2022-09-27T05:37:20.874Z,12.58
2022-09-27T05:38:20.879Z,12.57
2022-09-27T05:39:20.885Z,12.64
2022-09-27T05:40:37.076Z,12.64
2022-09-27T05:41:20.968Z,12.62
2022-09-27T05:42:20.899Z,12.64
2022-09-27T05:43:20.906Z,12.67
2022-09-27T05:44:20.909Z,12.62
2022-09-27T05:45:20.916Z,12.67
2022-09-27T05:46:20.996Z,12.64
2022-09-27T05:47:20.935Z,12.68
2022-09-27T05:54:13.438Z,12.73
2022-09-27T05:55:13.396Z,12.70
2022-09-27T05:56:13.402Z,12.76
2022-09-27T05:57:13.408Z,12.72
2022-09-27T05:58:13.412Z,12.70
2022-09-27T05:59:13.417Z,12.75
2022-09-27T06:00:13.423Z,12.75
2022-09-27T06:01:13.459Z,12.72
2022-09-27T06:02:13.480Z,12.76
2022-09-27T06:03:13.440Z,12.85
2022-09-27T06:04:13.493Z,12.82
2022-09-27T06:05:13.452Z,12.80
2022-09-27T06:06:13.455Z,12.80
2022-09-27T06:07:13.462Z,12.82
2022-09-27T06:08:13.467Z,12.86
2022-09-27T06:09:13.612Z,12.82
2022-09-27T06:10:13.499Z,12.82
2022-09-27T06:11:13.483Z,12.86
2022-09-27T06:12:13.491Z,12.85
2022-09-27T06:13:13.494Z,12.80
2022-09-27T06:14:13.503Z,12.79
2022-09-27T06:15:13.506Z,12.83
2022-09-27T06:16:13.561Z,12.83
2022-09-27T06:17:13.518Z,12.87
2022-09-27T06:18:13.528Z,12.83
2022-09-27T06:19:13.588Z,12.85
2022-09-27T06:20:13.538Z,12.85
2022-09-27T06:21:13.606Z,12.90
2022-09-27T06:22:13.563Z,12.93
2022-09-27T06:23:13.557Z,12.95
2022-09-27T06:24:13.561Z,12.90
2022-09-27T06:25:13.563Z,13.00
2022-09-27T06:26:13.591Z,12.93
2022-09-27T06:27:13.576Z,12.97
2022-09-27T06:28:13.582Z,12.95
2022-09-27T06:29:13.669Z,12.95
2022-09-27T06:30:16.932Z,12.97
2022-09-27T06:31:13.651Z,12.97
2022-09-27T06:32:13.606Z,12.95
2022-09-27T06:33:13.611Z,12.98
2022-09-27T06:34:13.617Z,12.95
2022-09-27T06:35:13.630Z,12.94
2022-09-27T06:36:13.693Z,13.01
2022-09-27T06:37:13.635Z,13.00
2022-09-27T06:38:13.641Z,13.04
2022-09-27T06:39:13.694Z,13.04
2022-09-27T06:40:13.775Z,13.05
2022-09-27T06:41:13.658Z,13.05
2022-09-27T06:42:13.687Z,13.01
2022-09-27T06:43:13.670Z,13.04
2022-09-27T06:44:13.676Z,13.11
2022-09-27T06:45:13.689Z,13.09
2022-09-27T06:46:13.789Z,13.08
2022-09-27T06:47:13.694Z,13.11
2022-09-27T06:48:13.703Z,13.09
2022-09-27T06:49:13.769Z,13.11
2022-09-27T06:50:13.714Z,13.12
2022-09-27T06:51:13.718Z,13.16
2022-09-27T06:52:13.726Z,13.15
2022-09-27T06:53:13.732Z,13.16
2022-09-27T06:54:13.736Z,13.11
2022-09-27T06:55:13.747Z,13.20
2022-09-27T06:56:13.750Z,13.25
2022-09-27T06:57:13.753Z,13.18
2022-09-27T06:58:13.786Z,13.20
2022-09-27T06:59:13.842Z,13.37
2022-09-27T07:00:13.775Z,13.22
2022-09-27T07:01:13.841Z,13.33
2022-09-27T07:02:13.843Z,13.33
2022-09-27T07:03:13.792Z,13.33
2022-09-27T07:04:13.797Z,13.39
2022-09-27T07:05:13.803Z,13.35
2022-09-27T07:06:13.812Z,13.41
2022-09-27T07:07:13.816Z,13.41
2022-09-27T07:08:13.824Z,13.37
2022-09-27T07:09:13.842Z,13.38
2022-09-27T07:10:13.833Z,13.35
2022-09-27T07:11:13.842Z,13.42
2022-09-27T07:12:13.846Z,13.44
2022-09-27T07:13:13.853Z,13.37
2022-09-27T07:14:13.879Z,13.56
2022-09-27T07:15:13.866Z,13.56
2022-09-27T07:16:13.978Z,13.46
2022-09-27T07:17:13.877Z,13.54
2022-09-27T07:18:13.883Z,13.62
2022-09-27T07:19:13.963Z,13.71
2022-09-27T07:20:13.899Z,13.77
2022-09-27T07:21:13.902Z,13.81
2022-09-27T07:22:13.911Z,13.90
2022-09-27T07:23:13.918Z,13.93
2022-09-27T07:24:13.925Z,13.95
2022-09-27T07:25:13.947Z,13.96
2022-09-27T07:26:13.938Z,14.00
2022-09-27T07:28:22.318Z,14.00
2022-09-27T07:29:21.564Z,14.08
2022-09-27T07:30:21.550Z,14.04
2022-09-27T07:31:21.555Z,13.93
2022-09-27T07:32:21.561Z,14.07
2022-09-27T07:33:21.570Z,14.05
2022-09-27T07:34:21.574Z,14.07
2022-09-27T07:35:21.581Z,14.08
2022-09-27T07:36:21.588Z,14.05
2022-09-27T07:37:21.593Z,14.08
2022-09-27T07:38:21.601Z,14.14
2022-09-27T07:39:21.608Z,14.23
2022-09-27T07:40:21.636Z,14.32
2022-09-27T07:41:21.620Z,14.30
2022-09-27T07:42:21.628Z,14.43
2022-09-27T07:43:21.633Z,14.37
2022-09-27T07:44:21.641Z,14.43
2022-09-27T07:45:21.666Z,14.23
2022-09-27T07:46:21.693Z,14.07
2022-09-27T07:47:21.662Z,13.96
2022-09-27T07:48:21.668Z,13.86
2022-09-27T07:49:21.672Z,13.81
2022-09-27T07:50:21.682Z,13.79
2022-09-27T07:51:21.686Z,13.67
2022-09-27T07:52:21.694Z,13.59
2022-09-27T07:53:21.699Z,13.54
2022-09-27T07:54:21.705Z,13.50
2022-09-27T07:55:21.714Z,13.44
2022-09-27T08:06:05.867Z,13.49
2022-09-27T08:07:05.854Z,13.56
2022-09-27T08:08:05.855Z,13.52
2022-09-27T08:09:05.862Z,13.57
2022-09-27T08:10:05.867Z,13.60
2022-09-27T08:11:05.873Z,13.65
2022-09-27T08:12:05.879Z,13.60
2022-09-27T08:13:05.884Z,13.67
2022-09-27T08:14:05.890Z,13.54
2022-09-27T08:15:05.896Z,13.60
2022-09-27T08:16:05.962Z,13.67
2022-09-27T08:17:05.907Z,13.63
2022-09-27T08:18:05.914Z,13.70
2022-09-27T08:19:05.919Z,13.59
2022-09-27T08:20:05.927Z,13.68
2022-09-27T08:21:05.931Z,13.77
2022-09-27T08:22:05.973Z,13.77
2022-09-27T08:23:05.944Z,13.75
2022-09-27T08:24:05.950Z,13.81
2022-09-27T08:25:05.955Z,13.89
2022-09-27T08:26:05.964Z,13.78
2022-09-27T08:27:09.412Z,13.85
2022-09-27T08:28:05.976Z,13.93
2022-09-27T08:29:05.982Z,13.90
2022-09-27T08:30:05.988Z,13.83
2022-09-27T08:31:05.996Z,13.92
2022-09-27T08:32:05.999Z,14.03
2022-09-27T08:33:06.009Z,13.89
2022-09-27T08:34:06.023Z,13.95
2022-09-27T08:35:06.020Z,13.90
2022-09-27T08:36:06.025Z,13.96
2022-09-27T08:37:06.032Z,14.03
2022-09-27T08:38:06.174Z,13.92
2022-09-27T08:39:06.052Z,14.07
2022-09-27T08:40:06.054Z,13.96
2022-09-27T08:41:06.059Z,13.90
2022-09-27T08:42:06.070Z,13.96
2022-09-27T08:43:06.073Z,14.00
2022-09-27T08:44:06.078Z,14.07
2022-09-27T08:45:06.086Z,13.96
2022-09-27T08:46:06.136Z,13.93
2022-09-27T08:47:06.097Z,13.89
2022-09-27T08:48:06.105Z,13.90
2022-09-27T08:49:06.111Z,13.87
2022-09-27T08:50:06.119Z,13.90
2022-09-27T08:51:06.123Z,13.86
2022-09-27T08:52:06.130Z,13.85
2022-09-27T09:08:25.259Z,14.43
2022-09-27T09:09:25.241Z,14.53
2022-09-27T09:10:25.250Z,14.54
2022-09-27T09:11:25.254Z,14.54
2022-09-27T09:12:25.260Z,14.50
2022-09-27T09:13:25.854Z,14.51
2022-09-27T09:14:25.274Z,14.58
2022-09-27T09:15:25.280Z,14.62
2022-09-27T09:16:25.334Z,14.70
2022-09-27T09:17:25.292Z,14.69
2022-09-27T09:18:25.300Z,14.82
2022-09-27T09:19:25.310Z,14.96
2022-09-27T09:20:25.318Z,15.04
